Dorchester, New Hampshire
Current Conditions -  °F | °C
As of 5:35 PM on Sunday 21 Dec 2014 (Local Time) from K1P1 Reporting Station
Overcast Overcast  
Wind Chill: 30°   Ceiling: 4100
Heat Index: 30°   Visibility: 10mi
Dew Point: 29°   Wind: 0mph
Humidity: 95%   Direction: NA
Pressure: 30.33"   Gusts: NA
Location:  43.7922°N, 71.8971°W
Report Text: K1P1 212235Z AUTO 00000KT 10SM OVC041 M01/M02 A3033 RMK AO2 T10101017
Loading
Personal Weather Stations






























Interactive Weather Map New forecast layout! Learn more

10-Day Weather Forecast

Advertisements
Track Severe Weather on mobile